Date,TemperatureHighF,TemperatureAvgF,TemperatureLowF,DewpointHighF,DewpointAvgF,DewpointLowF,HumidityHigh,HumidityAvg,HumidityLow,PressureMaxIn,PressureMinIn,WindSpeedMaxMPH,WindSpeedAvgMPH,GustSpeedMaxMPH,PrecipitationSumIn
2013-5-1,82,68,56,51,45,31,78,49,22,30.42,30.30,6,2,14,0.00
2013-5-2,83,68,52,40,31,18,63,30,10,30.48,30.30,5,2,14,0.00
2013-5-3,79,66,50,44,38,24,73,38,15,30.38,30.25,12,3,22,0.00
2013-5-4,76,64,50,42,39,28,60,41,19,30.33,30.18,5,3,17,0.00
2013-5-5,78,65,53,41,29,11,63,33,10,30.27,30.11,6,3,18,0.00
2013-5-6,75,63,50,54,45,35,72,53,40,30.21,30.10,6,2,18,0.00
2013-5-7,74,64,58,58,54,52,85,72,46,30.15,30.07,5,2,11,0.06
2013-5-8,79,66,55,57,51,42,94,62,29,30.11,29.99,6,2,13,0.15
2013-5-9,82,68,58,57,52,38,88,59,25,30.11,30.02,3,1,11,0.00
2013-5-10,80,66,62,62,58,47,94,75,49,30.12,29.92,5,1,19,0.52
2013-5-11,63,59,54,61,54,48,95,84,69,29.95,29.88,3,1,11,0.12
2013-5-12,57,50,41,49,31,23,84,50,29,30.16,29.94,6,3,21,0.00
2013-5-13,59,47,37,32,26,18,76,45,21,30.29,30.15,6,2,20,0.00
2013-5-14,66,51,34,40,34,26,88,55,32,30.29,30.01,5,1,14,0.00
2013-5-15,90,72,53,61,53,40,75,54,34,30.01,29.82,6,2,19,0.00
2013-5-16,86,74,64,63,54,41,93,55,21,30.10,29.89,4,1,13,0.25
2013-5-17,87,72,57,60,54,46,88,59,29,30.23,30.09,4,1,11,0.00
2013-5-18,87,72,59,62,54,45,74,54,33,30.26,30.13,4,2,14,0.00
2013-5-19,82,72,61,63,61,57,88,70,50,30.23,30.09,4,2,12,0.00
2013-5-20,92,78,63,68,64,60,90,66,43,30.17,30.01,4,1,11,0.00
2013-5-21,93,81,69,69,66,61,90,62,39,30.09,29.93,5,2,13,0.00
2013-5-22,93,77,69,69,62,59,79,62,37,30.02,29.89,6,2,16,0.00
2013-5-23,82,67,52,65,62,49,94,83,47,30.03,29.88,6,2,17,1.06
2013-5-24,52,47,42,49,38,31,91,73,51,30.39,30.02,6,3,17,0.01
2013-5-25,66,52,38,39,34,29,86,54,26,30.41,30.31,5,2,17,0.00
2013-5-26,57,46,42,40,34,31,73,62,50,30.40,30.34,2,1,7,0.00
2013-5-27,67,57,43,48,42,36,89,58,37,30.39,30.22,4,1,8,0.00
2013-5-28,86,75,55,67,62,47,94,65,48,30.22,30.08,4,1,14,0.28
2013-5-29,93,82,71,62,61,59,68,50,32,30.20,30.12,10,2,21,0.00
2013-5-30,94,82,66,66,62,56,83,54,30,30.31,30.19,3,1,11,0.00
2013-5-31,93,82,69,66,63,60,87,57,34,30.25,30.09,4,2,14,0.00